Time;durP1;ratioP1;P1;durP2;ratioP2;P2;SDS_P1;SDS_P2;PMS_P1;PMS_P2;Temp;Humidity;BMP_temperature;BMP_pressure;BME280_temperature;BME280_humidity;BME280_pressure;Samples;Min_cycle;Max_cycle;Signal;HPM_P1;HPM_P2
2022/08/29 00:00:00;;;;;;;;;;;23.40;93.30;23.50;99459.00;;;;343253;28;87947;-87
2022/08/29 00:00:15;;;;;;;;;;;23.40;93.30;23.50;99451.00;;;;345835;28;83439;-87
2022/08/29 00:00:28;;;;;;;;;;;23.40;93.40;23.50;99448.00;;;;344242;28;85510;-86
2022/08/29 00:00:40;;;;;;;;;;;23.40;93.30;23.50;99449.00;;;;344325;28;82776;-87
2022/08/29 00:00:52;;;;;;;;;;;23.40;93.40;23.50;99449.00;;;;343046;28;86511;-87
2022/08/29 00:01:04;;;;;;;;;;;23.40;93.30;23.50;99450.00;;;;347504;28;83361;-86
2022/08/29 00:01:17;;;;;;;;;;;23.40;93.30;23.50;99450.00;;;;345786;28;87538;-87
2022/08/29 00:01:29;;;;;;;;;;;23.40;93.60;23.50;99447.00;;;;344799;28;83566;-87
2022/08/29 00:01:40;;;;;;;;;;;23.40;93.40;23.40;99450.00;;;;347402;28;86021;-86
2022/08/29 00:01:52;;;;;;;;;;;23.40;93.60;23.50;99449.00;;;;348608;27;82580;-87
2022/08/29 00:02:04;;;;;;;;;;;23.40;93.40;23.50;99447.00;;;;347389;28;87288;-86
2022/08/29 00:02:16;;;;;;;;;;;23.30;93.40;23.50;99452.00;;;;347391;28;83484;-86
2022/08/29 00:02:28;;;;;;;;;;;23.40;93.50;23.50;99451.00;;;;344413;28;85944;-87
2022/08/29 00:02:39;;;;;;;;;;;23.30;93.40;23.40;99442.00;;;;347198;28;83601;-87
2022/08/29 00:02:53;;;;;;;;;;;23.40;93.60;23.50;99446.00;;;;347309;28;87251;-87
2022/08/29 00:03:05;;;;;;;;;;;23.30;93.40;23.40;99449.00;;;;344350;28;83506;-87
2022/08/29 00:03:19;;;;;;;;;;;23.30;93.40;23.40;99447.00;;;;347410;28;87528;-87
2022/08/29 00:03:31;;;;;;;;;;;23.30;93.60;23.40;99444.00;;;;346130;28;82432;-87
2022/08/29 00:03:43;;;;;;;;;;;23.30;93.50;23.30;99446.00;;;;348728;27;86315;-87
2022/08/29 00:03:56;;;;;;;;;;;23.30;93.60;23.30;99447.00;;;;347334;28;82765;-86
2022/08/29 00:04:08;;;;;;;;;;;23.30;93.50;23.30;99452.00;;;;347212;27;86181;-86
2022/08/29 00:04:20;;;;;;;;;;;23.30;93.50;23.30;99442.00;;;;345875;28;83711;-87
2022/08/29 00:04:31;;;;;;;;;;;23.30;93.60;23.30;99441.00;;;;344412;28;86660;-87
2022/08/29 00:04:43;;;;;;;;;;;23.30;93.50;23.20;99445.00;;;;348594;27;82668;-86
2022/08/29 00:04:55;;;;;;;;;;;23.30;93.60;23.20;99442.00;;;;345742;28;85857;-86
2022/08/29 00:05:07;;;;;;;;;;;23.30;93.70;23.30;99437.00;;;;347193;28;83490;-86
2022/08/29 00:05:20;;;;;;;;;;;23.20;93.60;23.30;99449.00;;;;347228;28;86520;-86
2022/08/29 00:05:36;;;;;;;;;;;23.30;93.40;23.30;99441.00;;;;345745;28;83129;-86
2022/08/29 00:05:48;;;;;;;;;;;23.30;93.50;23.30;99443.00;;;;348591;27;83539;-86
2022/08/29 00:06:01;;;;;;;;;;;23.30;93.40;23.30;99444.00;;;;348881;27;83485;-87
2022/08/29 00:06:13;;;;;;;;;;;23.30;93.30;23.40;99450.00;;;;344569;28;85940;-87
2022/08/29 00:06:24;;;;;;;;;;;23.30;93.30;23.30;99447.00;;;;346086;28;82501;-86
2022/08/29 00:06:36;;;;;;;;;;;23.20;93.30;23.40;99448.00;;;;347390;28;85899;-87
2022/08/29 00:06:48;;;;;;;;;;;23.20;93.30;23.40;99448.00;;;;348676;27;82437;-87
2022/08/29 00:06:59;;;;;;;;;;;23.30;93.30;23.40;99445.00;;;;345909;28;85548;-87
2022/08/29 00:07:11;;;;;;;;;;;23.30;93.30;23.40;99451.00;;;;343382;28;83516;-87
2022/08/29 00:07:23;;;;;;;;;;;23.30;93.40;23.40;99444.00;;;;348815;27;86179;-87
2022/08/29 00:07:35;;;;;;;;;;;23.30;93.50;23.40;99440.00;;;;345991;28;82315;-87
2022/08/29 00:07:46;;;;;;;;;;;23.30;93.50;23.30;99445.00;;;;345680;28;86491;-86
2022/08/29 00:08:00;;;;;;;;;;;23.30;93.40;23.40;99451.00;;;;347419;28;83309;-87
2022/08/29 00:08:11;;;;;;;;;;;23.20;93.40;23.30;99447.00;;;;345737;28;85427;-87
2022/08/29 00:08:24;;;;;;;;;;;23.30;93.90;23.30;99443.00;;;;346013;28;82563;-87
2022/08/29 00:08:36;;;;;;;;;;;23.20;94.00;23.30;99449.00;;;;348674;27;86057;-87
2022/08/29 00:08:48;;;;;;;;;;;23.20;93.90;23.30;99445.00;;;;347116;28;83418;-86
2022/08/29 00:08:59;;;;;;;;;;;23.20;93.90;23.30;99449.00;;;;347052;28;87175;-87
2022/08/29 00:09:11;;;;;;;;;;;23.20;93.70;23.40;99439.00;;;;344849;28;83322;-86
2022/08/29 00:09:23;;;;;;;;;;;23.20;93.80;23.30;99446.00;;;;350086;27;85637;-86
2022/08/29 00:09:35;;;;;;;;;;;23.20;94.10;23.30;99442.00;;;;348726;27;83763;-86
2022/08/29 00:09:46;;;;;;;;;;;23.20;93.80;23.30;99444.00;;;;345828;28;86421;-86
2022/08/29 00:09:58;;;;;;;;;;;23.20;93.70;23.30;99436.00;;;;347242;28;82524;-87
2022/08/29 00:10:10;;;;;;;;;;;23.20;93.70;23.40;99446.00;;;;347375;28;86206;-86
2022/08/29 00:10:22;;;;;;;;;;;23.20;93.60;23.30;99443.00;;;;348821;27;82460;-87
2022/08/29 00:10:34;;;;;;;;;;;23.20;93.70;23.30;99446.00;;;;348693;27;86025;-86
2022/08/29 00:10:46;;;;;;;;;;;23.20;93.80;23.30;99441.00;;;;347436;28;83373;-86
2022/08/29 00:10:58;;;;;;;;;;;23.20;93.60;23.30;99443.00;;;;347111;28;86149;-86
2022/08/29 00:11:10;;;;;;;;;;;23.20;93.60;23.30;99445.00;;;;346045;28;83228;-87
2022/08/29 00:11:21;;;;;;;;;;;23.20;93.80;23.30;99447.00;;;;344704;28;87254;-86
2022/08/29 00:11:33;;;;;;;;;;;23.20;93.60;23.30;99441.00;;;;347389;28;83308;-87
2022/08/29 00:11:45;;;;;;;;;;;23.20;93.70;23.30;99446.00;;;;345736;28;85485;-87
2022/08/29 00:11:57;;;;;;;;;;;23.20;94.00;23.20;99445.00;;;;348923;27;82538;-87
2022/08/29 00:12:09;;;;;;;;;;;23.20;94.00;23.20;99443.00;;;;344664;28;86042;-87
2022/08/29 00:12:21;;;;;;;;;;;23.20;94.00;23.20;99447.00;;;;347479;28;82559;-87
2022/08/29 00:12:32;;;;;;;;;;;23.20;93.90;23.20;99438.00;;;;347178;28;85959;-87
2022/08/29 00:12:44;;;;;;;;;;;23.20;93.90;23.20;99438.00;;;;345882;28;83257;-87
2022/08/29 00:12:56;;;;;;;;;;;23.20;93.90;23.20;99439.00;;;;344383;28;86618;-87
2022/08/29 00:13:08;;;;;;;;;;;23.20;94.00;23.20;99441.00;;;;347362;28;83325;-86
2022/08/29 00:13:20;;;;;;;;;;;23.20;93.80;23.20;99444.00;;;;343175;28;85320;-86
2022/08/29 00:13:33;;;;;;;;;;;23.20;93.90;23.20;99437.00;;;;348580;27;83477;-87
2022/08/29 00:13:45;;;;;;;;;;;23.20;93.80;23.20;99439.00;;;;347196;28;87032;-86
2022/08/29 00:13:57;;;;;;;;;;;23.20;93.90;23.20;99440.00;;;;345793;28;83324;-87
2022/08/29 00:14:08;;;;;;;;;;;23.20;93.80;23.20;99437.00;;;;348703;27;87262;-87
2022/08/29 00:14:34;;;;;;;;;;;23.20;93.70;23.20;99436.00;;;;348662;27;83469;-87
2022/08/29 00:14:46;;;;;;;;;;;23.20;93.80;23.20;99432.00;;;;343124;28;87408;-87
2022/08/29 00:14:57;;;;;;;;;;;23.20;93.60;23.20;99436.00;;;;346143;28;82462;-87
2022/08/29 00:15:10;;;;;;;;;;;23.20;93.60;23.20;99429.00;;;;347334;28;87086;-86
2022/08/29 00:15:22;;;;;;;;;;;23.10;93.50;23.30;99439.00;;;;344706;28;82413;-86
2022/08/29 00:15:33;;;;;;;;;;;23.20;93.50;23.30;99430.00;;;;345865;28;86173;-86
2022/08/29 00:15:55;;;;;;;;;;;23.20;93.60;23.30;99442.00;;;;345790;28;83304;-86
2022/08/29 00:16:07;;;;;;;;;;;23.20;93.70;23.20;99432.00;;;;346081;28;87308;-87
2022/08/29 00:16:19;;;;;;;;;;;23.20;94.00;23.10;99431.00;;;;344709;28;83449;-87
2022/08/29 00:16:31;;;;;;;;;;;23.20;94.00;23.10;99438.00;;;;348535;27;87666;-86
2022/08/29 00:16:43;;;;;;;;;;;23.20;94.00;23.10;99434.00;;;;347113;28;83529;-87
2022/08/29 00:16:54;;;;;;;;;;;23.10;94.10;23.10;99434.00;;;;345573;28;86825;-87
2022/08/29 00:17:06;;;;;;;;;;;23.10;93.90;23.20;99436.00;;;;348692;27;83470;-87
2022/08/29 00:17:18;;;;;;;;;;;23.10;93.80;23.20;99429.00;;;;345979;28;86191;-86
2022/08/29 00:17:30;;;;;;;;;;;23.10;93.90;23.20;99432.00;;;;346079;28;83418;-87
2022/08/29 00:17:41;;;;;;;;;;;23.10;93.90;23.20;99432.00;;;;345836;28;87497;-87
2022/08/29 00:17:53;;;;;;;;;;;23.10;93.80;23.20;99425.00;;;;343289;28;83512;-87
2022/08/29 00:18:06;;;;;;;;;;;23.10;93.70;23.20;99428.00;;;;348428;27;86373;-87
2022/08/29 00:18:18;;;;;;;;;;;23.10;93.70;23.10;99438.00;;;;347427;28;83532;-87
2022/08/29 00:18:31;;;;;;;;;;;23.10;94.00;23.10;99427.00;;;;347184;28;85422;-87
2022/08/29 00:18:42;;;;;;;;;;;23.10;93.90;23.20;99432.00;;;;348287;27;83379;-87
2022/08/29 00:18:54;;;;;;;;;;;23.10;93.80;23.20;99433.00;;;;345776;27;87398;-86
2022/08/29 00:19:06;;;;;;;;;;;23.10;93.80;23.20;99430.00;;;;348265;27;83529;-87
2022/08/29 00:19:17;;;;;;;;;;;23.10;93.80;23.20;99432.00;;;;348601;27;86616;-87
2022/08/29 00:19:29;;;;;;;;;;;23.10;93.80;23.20;99430.00;;;;345785;28;83340;-86
2022/08/29 00:19:41;;;;;;;;;;;23.10;93.90;23.20;99434.00;;;;347270;28;86049;-86
2022/08/29 00:19:53;;;;;;;;;;;23.10;93.90;23.20;99429.00;;;;348700;27;83497;-87
2022/08/29 00:20:06;;;;;;;;;;;23.10;93.90;23.20;99433.00;;;;347230;28;85422;-87
2022/08/29 00:20:20;;;;;;;;;;;23.10;93.90;23.20;99429.00;;;;347425;28;83444;-87
2022/08/29 00:20:40;;;;;;;;;;;23.10;94.10;23.10;99428.00;;;;347149;27;86055;-86
2022/08/29 00:20:52;;;;;;;;;;;23.10;94.00;23.10;99428.00;;;;347257;27;83426;-87
2022/08/29 00:21:04;;;;;;;;;;;23.10;94.00;23.10;99434.00;;;;350126;27;85297;-85
2022/08/29 00:21:16;;;;;;;;;;;23.10;93.90;23.10;99435.00;;;;343282;28;83669;-86
2022/08/29 00:21:28;;;;;;;;;;;23.10;93.90;23.10;99433.00;;;;348526;27;85953;-87
2022/08/29 00:21:39;;;;;;;;;;;23.10;94.20;23.10;99434.00;;;;347308;28;83467;-86
2022/08/29 00:21:52;;;;;;;;;;;23.10;94.10;23.20;99434.00;;;;345636;28;85849;-87
2022/08/29 00:22:04;;;;;;;;;;;23.10;93.90;23.20;99434.00;;;;346090;28;83158;-87
2022/08/29 00:22:16;;;;;;;;;;;23.10;93.80;23.20;99435.00;;;;347075;28;86557;-87
2022/08/29 00:22:27;;;;;;;;;;;23.00;93.80;23.20;99430.00;;;;344651;28;82427;-86
2022/08/29 00:22:39;;;;;;;;;;;23.10;93.80;23.20;99435.00;;;;347072;28;86250;-86
2022/08/29 00:22:51;;;;;;;;;;;23.10;93.80;23.20;99440.00;;;;345882;28;83436;-87
2022/08/29 00:23:09;;;;;;;;;;;23.10;93.80;23.10;99435.00;;;;344452;28;85399;-86
2022/08/29 00:23:20;;;;;;;;;;;23.10;94.10;23.10;99434.00;;;;348573;27;83479;-87
2022/08/29 00:23:32;;;;;;;;;;;23.10;94.40;23.00;99434.00;;;;347087;28;87998;-85
2022/08/29 00:23:44;;;;;;;;;;;23.10;94.20;23.00;99436.00;;;;345974;28;83394;-86
2022/08/29 00:23:56;;;;;;;;;;;23.00;94.20;23.10;99436.00;;;;345624;28;86166;-87
2022/08/29 00:24:08;;;;;;;;;;;23.00;94.00;23.20;99434.00;;;;346011;28;82431;-87
2022/08/29 00:24:19;;;;;;;;;;;23.10;94.00;23.20;99435.00;;;;347311;28;86545;-86
2022/08/29 00:24:31;;;;;;;;;;;23.00;93.90;23.10;99431.00;;;;346065;28;83291;-86
2022/08/29 00:24:43;;;;;;;;;;;23.00;94.00;23.20;99436.00;;;;344575;28;86607;-87
2022/08/29 00:24:55;;;;;;;;;;;23.10;93.90;23.20;99439.00;;;;347115;28;83561;-87
2022/08/29 00:25:07;;;;;;;;;;;23.10;94.10;23.20;99438.00;;;;348552;27;86073;-87
2022/08/29 00:25:19;;;;;;;;;;;23.10;94.00;23.10;99441.00;;;;346167;28;83300;-86
2022/08/29 00:25:31;;;;;;;;;;;23.10;94.20;23.10;99437.00;;;;344520;28;85716;-86
2022/08/29 00:25:42;;;;;;;;;;;23.10;94.20;23.10;99437.00;;;;346104;28;82280;-86
2022/08/29 00:25:55;;;;;;;;;;;23.00;94.00;23.10;99442.00;;;;347174;28;86463;-86
2022/08/29 00:26:06;;;;;;;;;;;23.00;94.10;23.20;99439.00;;;;348833;27;83262;-87
2022/08/29 00:26:18;;;;;;;;;;;23.00;94.00;23.20;99438.00;;;;348675;27;86498;-86
2022/08/29 00:26:30;;;;;;;;;;;23.00;94.00;23.20;99439.00;;;;344748;28;83372;-87
2022/08/29 00:26:42;;;;;;;;;;;23.10;94.00;23.20;99446.00;;;;345973;28;87270;-87
2022/08/29 00:26:53;;;;;;;;;;;23.00;94.10;23.20;99448.00;;;;345979;28;83559;-87
2022/08/29 00:27:05;;;;;;;;;;;23.00;94.10;23.20;99442.00;;;;344328;28;85227;-86
2022/08/29 00:27:17;;;;;;;;;;;23.10;94.30;23.20;99436.00;;;;348642;27;83358;-86
2022/08/29 00:27:29;;;;;;;;;;;23.00;94.40;23.10;99440.00;;;;345962;28;86284;-87
2022/08/29 00:27:41;;;;;;;;;;;23.00;94.40;23.20;99445.00;;;;344640;28;82393;-87
2022/08/29 00:28:00;;;;;;;;;;;23.00;94.30;23.20;99439.00;;;;345761;28;85398;-87
2022/08/29 00:28:11;;;;;;;;;;;23.00;94.30;23.20;99444.00;;;;346101;28;82380;-87
2022/08/29 00:28:24;;;;;;;;;;;23.10;94.20;23.20;99439.00;;;;345882;28;85012;-87
2022/08/29 00:28:36;;;;;;;;;;;23.00;94.20;23.10;99435.00;;;;347215;28;82492;-86
2022/08/29 00:28:47;;;;;;;;;;;23.10;94.20;23.20;99446.00;;;;347273;28;87056;-86
2022/08/29 00:28:59;;;;;;;;;;;23.00;94.10;23.10;99440.00;;;;347228;28;83321;-86
2022/08/29 00:29:11;;;;;;;;;;;23.00;94.20;23.10;99442.00;;;;344332;28;86396;-86
2022/08/29 00:29:23;;;;;;;;;;;23.00;94.50;23.10;99441.00;;;;347316;28;83411;-87
2022/08/29 00:29:34;;;;;;;;;;;23.00;94.50;23.10;99439.00;;;;347292;28;86232;-86
2022/08/29 00:29:46;;;;;;;;;;;23.00;94.30;23.10;99442.00;;;;347314;28;83266;-87
2022/08/29 00:29:58;;;;;;;;;;;23.00;94.30;23.10;99438.00;;;;345962;28;85786;-87
2022/08/29 00:30:10;;;;;;;;;;;23.00;94.20;23.10;99439.00;;;;344725;28;83242;-87
2022/08/29 00:30:23;;;;;;;;;;;23.00;94.10;23.10;99441.00;;;;348534;27;86224;-87
2022/08/29 00:30:36;;;;;;;;;;;23.00;94.30;23.00;99440.00;;;;348319;27;83258;-86
2022/08/29 00:30:48;;;;;;;;;;;23.00;94.30;23.00;99447.00;;;;344357;28;85026;-86
2022/08/29 00:31:00;;;;;;;;;;;23.00;94.30;23.00;99447.00;;;;345975;28;83617;-86
2022/08/29 00:31:12;;;;;;;;;;;23.00;94.30;23.00;99442.00;;;;347200;28;86088;-86
2022/08/29 00:31:24;;;;;;;;;;;23.00;94.40;23.00;99445.00;;;;345963;28;83513;-86
2022/08/29 00:31:35;;;;;;;;;;;23.00;94.10;23.00;99445.00;;;;347385;28;84013;-86
2022/08/29 00:31:47;;;;;;;;;;;23.00;94.10;23.00;99444.00;;;;348614;27;83598;-87
2022/08/29 00:31:59;;;;;;;;;;;23.00;94.10;23.00;99442.00;;;;347455;28;83527;-87
2022/08/29 00:32:11;;;;;;;;;;;23.00;94.10;23.00;99447.00;;;;347248;28;83507;-86
2022/08/29 00:32:23;;;;;;;;;;;23.00;94.10;23.00;99437.00;;;;347129;28;87777;-87
2022/08/29 00:32:36;;;;;;;;;;;23.00;94.40;23.00;99446.00;;;;346201;28;82410;-86
2022/08/29 00:32:47;;;;;;;;;;;23.00;94.60;23.00;99444.00;;;;344664;28;83263;-87
2022/08/29 00:32:59;;;;;;;;;;;23.00;94.30;23.00;99437.00;;;;347159;28;83412;-86
2022/08/29 00:33:11;;;;;;;;;;;23.00;94.30;23.00;99445.00;;;;345990;28;84099;-86
2022/08/29 00:33:23;;;;;;;;;;;23.00;94.40;22.90;99442.00;;;;346030;28;83144;-87
2022/08/29 00:33:35;;;;;;;;;;;23.00;94.50;23.00;99438.00;;;;347199;28;84789;-86
2022/08/29 00:33:50;;;;;;;;;;;23.00;94.30;23.00;99445.00;;;;348883;27;83338;-87
2022/08/29 00:34:01;;;;;;;;;;;23.00;94.30;23.00;99439.00;;;;348462;27;87415;-86
2022/08/29 00:34:13;;;;;;;;;;;22.90;94.40;23.00;99439.00;;;;345830;28;83505;-86
2022/08/29 00:34:25;;;;;;;;;;;23.00;94.60;23.00;99444.00;;;;347349;28;85293;-87
2022/08/29 00:34:37;;;;;;;;;;;23.00;94.40;23.00;99445.00;;;;345782;28;83449;-87
2022/08/29 00:34:49;;;;;;;;;;;23.00;94.60;23.00;99444.00;;;;343306;28;85307;-87
2022/08/29 00:35:02;;;;;;;;;;;23.00;94.60;23.10;99441.00;;;;348634;27;82593;-87
2022/08/29 00:35:16;;;;;;;;;;;23.00;94.40;23.10;99443.00;;;;347186;28;86225;-87
2022/08/29 00:35:30;;;;;;;;;;;23.00;94.30;23.10;99442.00;;;;344539;28;82453;-87
2022/08/29 00:35:43;;;;;;;;;;;23.00;94.30;23.00;99444.00;;;;347242;28;84610;-86
2022/08/29 00:35:55;;;;;;;;;;;23.00;94.40;23.00;99446.00;;;;347443;28;82584;-86
2022/08/29 00:36:07;;;;;;;;;;;23.00;94.40;23.00;99441.00;;;;347325;28;84922;-86
2022/08/29 00:36:20;;;;;;;;;;;22.90;94.30;23.00;99446.00;;;;347195;28;83551;-86
2022/08/29 00:36:33;;;;;;;;;;;23.00;94.20;23.00;99448.00;;;;346053;28;83539;-86
2022/08/29 00:36:44;;;;;;;;;;;23.00;94.20;23.00;99450.00;;;;343365;28;83397;-87
2022/08/29 00:36:59;;;;;;;;;;;23.00;94.10;23.00;99445.00;;;;344336;28;85524;-86
2022/08/29 00:37:11;;;;;;;;;;;22.90;94.10;23.00;99446.00;;;;345801;28;83422;-87
2022/08/29 00:37:23;;;;;;;;;;;22.90;94.20;23.00;99446.00;;;;347402;28;84588;-86
2022/08/29 00:37:35;;;;;;;;;;;22.90;94.30;23.00;99444.00;;;;347158;28;83361;-86
2022/08/29 00:37:47;;;;;;;;;;;22.90;94.20;23.00;99443.00;;;;342960;28;85724;-86
2022/08/29 00:37:59;;;;;;;;;;;22.90;94.20;23.00;99438.00;;;;348544;27;82669;-87
2022/08/29 00:38:14;;;;;;;;;;;22.90;94.30;23.10;99448.00;;;;347317;28;86979;-87
2022/08/29 00:38:27;;;;;;;;;;;22.90;94.30;23.10;99439.00;;;;344552;28;83528;-86
2022/08/29 00:38:39;;;;;;;;;;;22.90;94.30;23.10;99441.00;;;;348556;27;85246;-86
2022/08/29 00:38:52;;;;;;;;;;;22.90;94.30;23.00;99447.00;;;;345880;28;82703;-85
2022/08/29 00:39:04;;;;;;;;;;;22.90;94.40;23.10;99442.00;;;;345977;28;87280;-86
2022/08/29 00:39:19;;;;;;;;;;;22.90;94.30;23.10;99447.00;;;;347517;28;82619;-87
2022/08/29 00:39:33;;;;;;;;;;;22.90;94.40;23.00;99444.00;;;;344366;28;86200;-87
2022/08/29 00:39:45;;;;;;;;;;;23.00;94.60;23.00;99445.00;;;;347502;27;82445;-87
2022/08/29 00:39:57;;;;;;;;;;;22.90;94.50;23.10;99442.00;;;;345616;28;85401;-87
2022/08/29 00:40:11;;;;;;;;;;;22.90;94.40;23.10;99448.00;;;;347262;28;83476;-87
2022/08/29 00:40:29;;;;;;;;;;;22.90;94.60;23.00;99446.00;;;;346022;28;86102;-87
2022/08/29 00:40:49;;;;;;;;;;;22.90;94.70;23.00;99445.00;;;;343200;28;83468;-86
2022/08/29 00:41:03;;;;;;;;;;;22.90;94.50;23.00;99447.00;;;;348380;27;86449;-87
2022/08/29 00:41:14;;;;;;;;;;;22.90;94.50;23.00;99451.00;;;;347377;27;82580;-87
2022/08/29 00:41:26;;;;;;;;;;;22.90;94.60;23.10;99444.00;;;;345962;28;86416;-87
2022/08/29 00:41:38;;;;;;;;;;;22.90;94.60;23.00;99440.00;;;;346133;28;83386;-87
2022/08/29 00:41:50;;;;;;;;;;;22.90;94.60;22.90;99451.00;;;;345628;28;85754;-87
2022/08/29 00:42:01;;;;;;;;;;;22.90;94.80;23.00;99447.00;;;;347502;28;83024;-87
2022/08/29 00:42:13;;;;;;;;;;;22.90;94.70;23.00;99447.00;;;;345885;28;85684;-87
2022/08/29 00:42:25;;;;;;;;;;;22.90;94.40;23.00;99447.00;;;;347464;28;83350;-87
2022/08/29 00:42:37;;;;;;;;;;;22.90;94.40;22.90;99451.00;;;;347102;28;85273;-86
2022/08/29 00:42:49;;;;;;;;;;;22.90;94.70;23.00;99450.00;;;;343230;28;82342;-87
2022/08/29 00:43:01;;;;;;;;;;;22.90;94.60;23.00;99453.00;;;;347133;28;87584;-86
2022/08/29 00:43:13;;;;;;;;;;;22.90;94.60;22.90;99448.00;;;;345931;28;82355;-87
2022/08/29 00:43:29;;;;;;;;;;;22.90;94.70;23.00;99453.00;;;;345889;28;86550;-87
2022/08/29 00:43:41;;;;;;;;;;;22.90;94.80;22.80;99454.00;;;;348698;27;83438;-87
2022/08/29 00:43:52;;;;;;;;;;;22.80;94.70;22.90;99449.00;;;;345921;28;84809;-87
2022/08/29 00:44:04;;;;;;;;;;;22.80;94.90;22.80;99445.00;;;;345843;28;83399;-87
2022/08/29 00:44:16;;;;;;;;;;;22.80;95.00;22.80;99448.00;;;;347224;28;86992;-87
2022/08/29 00:44:28;;;;;;;;;;;22.80;94.90;22.80;99449.00;;;;346176;28;83251;-87
2022/08/29 00:44:40;;;;;;;;;;;22.80;94.90;22.90;99449.00;;;;347239;28;88149;-87
2022/08/29 00:44:51;;;;;;;;;;;22.80;94.60;23.00;99447.00;;;;344636;28;83556;-87
2022/08/29 00:45:04;;;;;;;;;;;22.80;94.60;22.90;99446.00;;;;347207;28;87328;-87
2022/08/29 00:45:16;;;;;;;;;;;22.80;94.60;22.90;99459.00;;;;346052;28;83256;-86
2022/08/29 00:45:28;;;;;;;;;;;22.80;94.60;22.80;99454.00;;;;346021;28;86363;-86
2022/08/29 00:45:56;;;;;;;;;;;22.80;94.80;22.80;99445.00;;;;346001;28;83469;-86
2022/08/29 00:46:40;;;;;;;;;;;22.80;94.90;22.80;99454.00;;;;344196;28;85617;-87
2022/08/29 00:46:54;;;;;;;;;;;22.80;95.10;22.90;99461.00;;;;341555;28;83545;-86
2022/08/29 00:47:08;;;;;;;;;;;22.80;94.90;22.90;99452.00;;;;339936;28;86170;-86
2022/08/29 00:47:22;;;;;;;;;;;22.80;94.80;22.80;99446.00;;;;339367;28;82398;-87
2022/08/29 00:47:36;;;;;;;;;;;22.80;94.70;22.80;99451.00;;;;341810;28;83759;-86
2022/08/29 00:47:53;;;;;;;;;;;22.80;94.90;22.80;99453.00;;;;343065;28;83580;-87
2022/08/29 00:48:09;;;;;;;;;;;22.80;94.70;22.90;99457.00;;;;343166;28;83776;-87
2022/08/29 00:48:21;;;;;;;;;;;22.80;94.90;22.90;99453.00;;;;340635;28;82518;-86
2022/08/29 00:48:33;;;;;;;;;;;22.70;94.90;22.80;99450.00;;;;344301;28;87404;-86
2022/08/29 00:48:45;;;;;;;;;;;22.80;95.10;22.80;99452.00;;;;341963;28;82393;-86
2022/08/29 00:49:02;;;;;;;;;;;22.70;95.10;22.70;99448.00;;;;340358;28;84544;-87
2022/08/29 00:49:41;;;;;;;;;;;22.80;95.00;22.80;99460.00;;;;341506;28;83565;-87
2022/08/29 00:49:53;;;;;;;;;;;22.70;95.00;22.80;99444.00;;;;339724;28;84588;-87
2022/08/29 00:50:07;;;;;;;;;;;22.80;94.90;22.80;99438.00;;;;340578;28;83252;-86
2022/08/29 00:50:25;;;;;;;;;;;22.70;95.00;22.80;99445.00;;;;341851;28;86380;-86
2022/08/29 00:50:41;;;;;;;;;;;22.70;95.10;22.70;99450.00;;;;343129;28;83285;-86
2022/08/29 00:50:56;;;;;;;;;;;22.70;95.00;22.80;99443.00;;;;342728;28;86082;-86
2022/08/29 00:51:11;;;;;;;;;;;22.70;95.00;22.80;99450.00;;;;343093;28;83542;-87
2022/08/29 00:51:24;;;;;;;;;;;22.70;94.90;22.70;99447.00;;;;343132;28;86407;-87
2022/08/29 00:51:36;;;;;;;;;;;22.70;95.20;22.70;99450.00;;;;344674;28;82236;-86
2022/08/29 00:51:48;;;;;;;;;;;22.70;95.30;22.70;99445.00;;;;342999;28;87172;-87
2022/08/29 00:52:04;;;;;;;;;;;22.70;95.20;22.70;99447.00;;;;342885;28;83407;-86
2022/08/29 00:52:21;;;;;;;;;;;22.70;95.20;22.70;99448.00;;;;341453;28;87771;-86
2022/08/29 00:52:36;;;;;;;;;;;22.70;95.00;22.80;99450.00;;;;344605;28;83349;-86
2022/08/29 00:52:48;;;;;;;;;;;22.70;94.90;22.90;99456.00;;;;343077;28;85469;-87
2022/08/29 00:53:00;;;;;;;;;;;22.70;94.80;22.90;99447.00;;;;341696;28;83664;-87
2022/08/29 00:53:15;;;;;;;;;;;22.70;94.80;22.90;99452.00;;;;343163;28;84843;-87
2022/08/29 00:53:39;;;;;;;;;;;22.70;94.80;22.90;99451.00;;;;341687;28;83661;-87
2022/08/29 00:53:58;;;;;;;;;;;22.70;94.80;22.90;99458.00;;;;341642;28;84916;-87
2022/08/29 00:54:10;;;;;;;;;;;22.70;94.80;22.80;99448.00;;;;340553;28;83564;-86
2022/08/29 00:54:22;;;;;;;;;;;22.70;95.10;22.80;99448.00;;;;343099;28;83412;-87
2022/08/29 00:54:35;;;;;;;;;;;22.70;95.00;22.80;99452.00;;;;341989;28;83434;-86
2022/08/29 00:54:49;;;;;;;;;;;22.70;94.80;22.80;99455.00;;;;339329;28;84633;-87
2022/08/29 00:55:02;;;;;;;;;;;22.70;94.80;22.80;99445.00;;;;339261;28;82375;-87
2022/08/29 00:55:18;;;;;;;;;;;22.70;94.90;22.90;99459.00;;;;341623;28;85021;-86
2022/08/29 00:55:32;;;;;;;;;;;22.70;94.80;22.70;99452.00;;;;340606;28;83333;-87
2022/08/29 00:55:44;;;;;;;;;;;22.70;94.90;22.70;99453.00;;;;341921;28;83793;-87
2022/08/29 00:56:02;;;;;;;;;;;22.70;95.20;22.80;99450.00;;;;340757;28;82630;-86
2022/08/29 00:56:14;;;;;;;;;;;22.70;95.10;22.70;99454.00;;;;340352;28;83707;-87
2022/08/29 00:56:26;;;;;;;;;;;22.70;95.30;22.70;99455.00;;;;341738;28;83613;-87
2022/08/29 00:56:38;;;;;;;;;;;22.70;95.20;22.80;99456.00;;;;339147;28;84152;-87
2022/08/29 00:56:50;;;;;;;;;;;22.70;95.00;22.80;99450.00;;;;341716;28;82570;-87
2022/08/29 00:57:02;;;;;;;;;;;22.70;95.00;22.80;99455.00;;;;340497;28;84123;-87
2022/08/29 00:57:16;;;;;;;;;;;22.70;95.00;22.90;99451.00;;;;343082;28;83674;-87
2022/08/29 00:57:29;;;;;;;;;;;22.70;95.00;22.90;99454.00;;;;344648;28;83751;-87
2022/08/29 00:57:43;;;;;;;;;;;22.70;94.90;22.80;99452.00;;;;341870;28;83420;-87
2022/08/29 00:57:57;;;;;;;;;;;22.70;94.90;22.80;99449.00;;;;341783;28;85423;-85
2022/08/29 00:58:15;;;;;;;;;;;22.70;95.10;22.80;99447.00;;;;344659;28;83189;-86
2022/08/29 00:58:54;;;;;;;;;;;22.70;95.00;22.80;99462.00;;;;342870;28;86558;-87
2022/08/29 00:59:23;;;;;;;;;;;22.70;95.10;22.80;99452.00;;;;341628;28;83324;-86
2022/08/29 00:59:38;;;;;;;;;;;22.70;94.80;22.70;99454.00;;;;343053;28;85109;-86
2022/08/29 00:59:50;;;;;;;;;;;22.70;95.20;22.70;99456.00;;;;345675;28;83434;-86
2022/08/29 01:00:04;;;;;;;;;;;22.70;95.10;22.70;99458.00;;;;345859;28;86465;-87
2022/08/29 01:00:16;;;;;;;;;;;22.70;95.20;22.70;99454.00;;;;341866;28;83342;-86
2022/08/29 01:00:28;;;;;;;;;;;22.70;95.10;22.70;99455.00;;;;344243;28;86195;-87
2022/08/29 01:00:40;;;;;;;;;;;22.70;95.00;22.70;99463.00;;;;341829;28;82840;-87
2022/08/29 01:00:52;;;;;;;;;;;22.60;95.00;22.60;99454.00;;;;344268;28;85368;-86
2022/08/29 01:01:04;;;;;;;;;;;22.60;95.10;22.70;99458.00;;;;344451;28;82791;-87
2022/08/29 01:01:17;;;;;;;;;;;22.60;95.10;22.70;99456.00;;;;341776;28;85610;-87
2022/08/29 01:01:29;;;;;;;;;;;22.60;94.90;22.60;99452.00;;;;343086;28;83542;-87
2022/08/29 01:01:41;;;;;;;;;;;22.60;95.10;22.60;99458.00;;;;343197;28;83447;-87
2022/08/29 01:01:53;;;;;;;;;;;22.60;95.10;22.60;99461.00;;;;341614;28;83732;-86
2022/08/29 01:02:09;;;;;;;;;;;22.60;95.20;22.70;99454.00;;;;341653;28;87865;-87
2022/08/29 01:02:21;;;;;;;;;;;22.60;95.00;22.70;99453.00;;;;340420;28;83316;-87
2022/08/29 01:02:33;;;;;;;;;;;22.60;94.90;22.70;99458.00;;;;343046;28;86874;-87
2022/08/29 01:02:50;;;;;;;;;;;22.60;94.90;22.60;99460.00;;;;341759;28;82609;-87
2022/08/29 01:03:06;;;;;;;;;;;22.60;95.30;22.60;99457.00;;;;344224;28;85125;-87
2022/08/29 01:03:17;;;;;;;;;;;22.60;95.20;22.70;99454.00;;;;341629;28;83345;-87
2022/08/29 01:03:31;;;;;;;;;;;22.60;95.10;22.60;99456.00;;;;341710;28;86055;-86
2022/08/29 01:03:43;;;;;;;;;;;22.60;95.20;22.60;99453.00;;;;343178;28;82423;-87
2022/08/29 01:03:55;;;;;;;;;;;22.50;95.20;22.70;99454.00;;;;341738;28;86179;-87
2022/08/29 01:04:11;;;;;;;;;;;22.60;95.20;22.60;99459.00;;;;340578;28;83534;-87
2022/08/29 01:04:26;;;;;;;;;;;22.50;95.30;22.60;99461.00;;;;341408;28;85467;-87
2022/08/29 01:04:38;;;;;;;;;;;22.60;95.30;22.60;99454.00;;;;343160;28;83435;-87
2022/08/29 01:04:50;;;;;;;;;;;22.50;95.30;22.60;99456.00;;;;341647;28;85251;-87